Time;durP1;ratioP1;P1;durP2;ratioP2;P2;SDS_P1;SDS_P2;PMS_P1;PMS_P2;Temp;Humidity;BMP_temperature;BMP_pressure;BME280_temperature;BME280_humidity;BME280_pressure;Samples;Min_cycle;Max_cycle;Signal;HPM_P1;HPM_P2
2022/12/26 00:01:28;;;;;;;31.20;19.15;;;;;;;9.65;100.00;101016.94;5069344;28;20040;-73
2022/12/26 00:03:54;;;;;;;31.95;18.88;;;;;;;9.55;100.00;101008.72;5069978;28;20077;-73
2022/12/26 00:06:23;;;;;;;31.17;19.13;;;;;;;9.61;100.00;101027.00;5068686;28;20021;-73
2022/12/26 00:08:49;;;;;;;30.50;19.65;;;;;;;9.64;100.00;101037.47;5066281;28;20028;-73
2022/12/26 00:11:15;;;;;;;30.63;18.95;;;;;;;9.60;100.00;101027.97;5068042;28;20546;-69
2022/12/26 00:13:41;;;;;;;35.05;19.83;;;;;;;9.63;100.00;101035.78;5067595;28;20020;-69
2022/12/26 00:16:09;;;;;;;29.00;20.33;;;;;;;9.60;100.00;101036.00;5067674;28;20553;-69
2022/12/26 00:18:34;;;;;;;34.55;20.00;;;;;;;9.63;100.00;101025.06;5067775;28;20516;-73
2022/12/26 00:21:00;;;;;;;34.88;21.42;;;;;;;9.57;100.00;101020.16;5070066;28;20107;-73
2022/12/26 00:23:25;;;;;;;30.88;20.40;;;;;;;9.58;100.00;101024.56;5071402;28;20762;-73
2022/12/26 00:25:51;;;;;;;34.83;21.45;;;;;;;9.57;100.00;101009.44;5073305;28;20450;-74
2022/12/26 00:28:16;;;;;;;30.38;20.67;;;;;;;9.57;100.00;101014.78;5073062;28;20021;-74
2022/12/26 00:30:42;;;;;;;32.05;21.58;;;;;;;9.44;100.00;100995.22;5073365;28;20032;-74
2022/12/26 00:33:07;;;;;;;34.17;21.85;;;;;;;9.47;100.00;100997.69;5073142;28;20350;-74
2022/12/26 00:35:32;;;;;;;35.58;21.17;;;;;;;9.53;100.00;101005.28;5073152;28;20655;-74
2022/12/26 00:37:58;;;;;;;33.47;21.85;;;;;;;9.42;100.00;100989.16;5073233;28;20131;-74
2022/12/26 00:40:23;;;;;;;33.22;21.02;;;;;;;9.53;100.00;101005.28;5072970;28;20032;-74
2022/12/26 00:42:49;;;;;;;34.22;21.45;;;;;;;9.52;100.00;101008.94;5073046;28;20025;-74
2022/12/26 00:45:14;;;;;;;36.25;22.63;;;;;;;9.48;100.00;101004.75;5073256;28;20035;-74
2022/12/26 00:47:40;;;;;;;38.85;22.98;;;;;;;9.47;100.00;101005.72;5072718;28;20032;-74
2022/12/26 00:50:05;;;;;;;34.80;22.17;;;;;;;9.42;100.00;100999.00;5073411;28;20780;-74
2022/12/26 00:52:31;;;;;;;39.45;22.15;;;;;;;9.27;100.00;100982.22;5072949;28;20050;-74
2022/12/26 00:54:56;;;;;;;38.38;23.63;;;;;;;9.40;100.00;101009.81;5072831;28;20025;-74
2022/12/26 00:57:22;;;;;;;36.90;21.67;;;;;;;9.41;100.00;101006.16;5072474;28;20028;-72
2022/12/26 00:59:47;;;;;;;34.92;23.58;;;;;;;9.40;100.00;101009.81;5072857;28;20020;-72
2022/12/26 01:04:57;;;;;;;34.35;22.08;;;;;;;9.30;100.00;100992.72;5072406;28;20051;-73
2022/12/26 01:07:22;;;;;;;31.88;21.55;;;;;;;9.38;100.00;101010.91;5072218;28;20028;-73
2022/12/26 01:09:48;;;;;;;36.75;22.52;;;;;;;9.33;100.00;101001.34;5072530;28;20035;-72
2022/12/26 01:12:13;;;;;;;34.35;22.95;;;;;;;9.24;100.00;100987.78;5072308;28;20158;-72
2022/12/26 01:14:38;;;;;;;33.53;22.08;;;;;;;9.19;100.00;100984.56;5072320;28;20067;-72
2022/12/26 01:17:04;;;;;;;37.42;23.45;;;;;;;9.17;100.00;100975.81;5071989;28;20081;-72
2022/12/26 01:19:29;;;;;;;32.65;21.90;;;;;;;9.36;100.00;101002.97;5052112;28;20044;-73
2022/12/26 01:21:55;;;;;;;36.03;22.23;;;;;;;9.36;100.00;101002.09;5052065;28;20027;-73
2022/12/26 01:24:20;;;;;;;33.40;21.27;;;;;;;9.37;100.00;101001.13;5051959;28;20565;-73
2022/12/26 01:26:46;;;;;;;32.30;21.35;;;;;;;9.21;100.00;100966.59;5050557;28;20025;-73
2022/12/26 01:29:12;;;;;;;33.05;22.10;;;;;;;9.39;100.00;100996.53;5051901;28;20480;-73
2022/12/26 01:31:37;;;;;;;33.40;21.63;;;;;;;9.20;100.00;100963.06;5055393;28;20102;-73
2022/12/26 01:34:02;;;;;;;31.83;21.27;;;;;;;9.40;100.00;101003.59;5071448;28;20102;-73
2022/12/26 01:36:28;;;;;;;32.50;20.52;;;;;;;9.40;100.00;100999.09;5071811;28;20036;-72
2022/12/26 01:38:53;;;;;;;31.75;20.98;;;;;;;9.34;100.00;100994.19;5071924;28;20067;-73
2022/12/26 01:41:19;;;;;;;33.50;20.65;;;;;;;9.42;100.00;101002.53;5071755;28;20043;-73
2022/12/26 01:44:06;;;;;;;32.75;19.92;;;;;;;9.39;100.00;101000.09;5071874;28;20031;-74
2022/12/26 01:46:44;;;;;;;38.50;21.23;;;;;;;9.37;100.00;100993.97;5071389;28;20025;-73
2022/12/26 01:49:39;;;;;;;30.73;18.85;;;;;;;9.38;100.00;101000.19;5071380;28;20048;-73
2022/12/26 01:52:08;;;;;;;;;;;;;;;9.33;100.00;100998.69;5067848;28;20115;-73
2022/12/26 01:54:37;;;;;;;32.13;18.98;;;;;;;9.26;100.00;100981.34;5071279;28;19919;-73
2022/12/26 01:57:08;;;;;;;33.00;19.52;;;;;;;9.36;100.00;101005.66;5071555;28;20028;-73
2022/12/26 01:59:38;;;;;;;30.33;19.33;;;;;;;9.33;100.00;100990.66;5071567;28;20508;-73
2022/12/26 02:02:04;;;;;;;29.83;19.13;;;;;;;9.22;100.00;100971.84;5071757;28;20043;-73
2022/12/26 02:07:25;;;;;;;29.38;19.08;;;;;;;9.31;100.00;100981.03;5071242;28;20570;-72
2022/12/26 02:09:51;;;;;;;26.50;18.13;;;;;;;9.33;100.00;100973.75;5071805;28;20442;-71
2022/12/26 02:12:24;;;;;;;29.58;18.65;;;;;;;9.36;100.00;100970.00;5069891;28;20119;-72
2022/12/26 02:14:50;;;;;;;26.40;17.80;;;;;;;9.31;100.00;100959.59;5071569;28;20040;-71
2022/12/26 02:17:16;;;;;;;26.92;16.77;;;;;;;9.38;100.00;100968.06;5071096;28;20037;-73
2022/12/26 02:20:17;;;;;;;28.63;18.13;;;;;;;9.29;100.00;100953.53;5071336;28;20103;-73
2022/12/26 02:22:49;;;;;;;36.08;18.27;;;;;;;9.36;100.00;100949.44;5071981;28;20028;-73
2022/12/26 02:25:39;;;;;;;27.75;16.98;;;;;;;9.36;100.00;100943.22;5071507;28;20029;-73
2022/12/26 02:28:32;;;;;;;33.42;18.65;;;;;;;9.34;100.00;100954.03;5072071;28;20036;-73
2022/12/26 02:31:13;;;;;;;30.45;18.02;;;;;;;9.24;100.00;100942.28;5071250;28;20035;-73
2022/12/26 02:33:59;;;;;;;30.27;18.85;;;;;;;9.33;100.00;100955.84;5071133;28;20100;-73
2022/12/26 02:36:39;;;;;;;30.65;18.10;;;;;;;9.19;100.00;100942.63;5069493;28;20029;-73
2022/12/26 02:39:21;;;;;;;25.17;16.50;;;;;;;9.32;100.00;100961.31;5070060;28;20082;-73
2022/12/26 02:41:55;;;;;;;24.85;16.83;;;;;;;9.33;100.00;100961.19;5071508;28;20574;-73
2022/12/26 02:47:28;;;;;;;30.40;17.75;;;;;;;9.31;100.00;100959.59;5071460;28;20495;-73
2022/12/26 03:13:11;;;;;;;28.30;17.27;;;;;;;9.07;100.00;100916.72;5069694;28;20705;-69
2022/12/26 03:18:33;;;;;;;24.50;16.23;;;;;;;8.97;100.00;100910.34;5069567;28;20086;-69
2022/12/26 03:20:59;;;;;;;30.75;17.92;;;;;;;8.96;100.00;100921.16;5069653;28;20032;-69
2022/12/26 03:23:27;;;;;;;33.72;18.20;;;;;;;8.89;100.00;100911.84;5069268;28;20107;-69
2022/12/26 03:28:49;;;;;;;29.90;18.13;;;;;;;8.92;100.00;100912.50;5069466;28;20479;-69
2022/12/26 03:31:15;;;;;;;28.17;17.52;;;;;;;8.85;100.00;100910.38;5068808;28;20033;-69
2022/12/26 03:36:51;;;;;;;29.70;17.67;;;;;;;8.85;100.00;100921.94;5068987;28;20610;-69
2022/12/26 04:21:07;;;;;;;30.27;18.70;;;;;;;8.43;100.00;100902.69;5072354;28;20188;-69
2022/12/26 04:46:07;;;;;;;32.47;20.05;;;;;;;8.17;100.00;100915.16;5071811;28;20031;-69
2022/12/26 04:51:24;;;;;;;31.55;20.50;;;;;;;8.17;100.00;100933.00;5071837;28;20106;-69
2022/12/26 04:53:50;;;;;;;30.92;19.60;;;;;;;8.14;100.00;100923.38;5071930;28;20384;-69
2022/12/26 04:56:17;;;;;;;33.95;20.85;;;;;;;8.12;100.00;100922.63;5071219;28;20036;-69
2022/12/26 04:58:43;;;;;;;31.55;19.88;;;;;;;8.10;100.00;100924.53;5071939;28;20102;-69
2022/12/26 05:09:35;;;;;;;32.55;19.45;;;;;;;8.02;100.00;100918.88;5071713;28;20097;-69
2022/12/26 05:12:06;;;;;;;30.33;20.42;;;;;;;8.01;100.00;100932.34;5071769;28;20099;-70
2022/12/26 05:14:34;;;;;;;32.03;20.05;;;;;;;7.92;100.00;100928.47;5069683;28;20028;-69
2022/12/26 05:30:55;;;;;;;31.90;20.35;;;;;;;7.62;100.00;100919.84;5069035;28;20045;-69
2022/12/26 05:36:05;;;;;;;34.60;20.55;;;;;;;7.69;100.00;100941.63;5067953;28;20193;-69
2022/12/26 05:38:30;;;;;;;34.90;21.67;;;;;;;7.57;100.00;100919.28;5070238;28;20537;-69
2022/12/26 05:40:56;;;;;;;38.47;23.13;;;;;;;7.66;100.00;100942.69;5070107;28;20028;-69
2022/12/26 05:43:21;;;;;;;33.45;21.85;;;;;;;7.63;100.00;100945.56;5070333;28;20025;-69
2022/12/26 05:45:47;;;;;;;32.13;21.75;;;;;;;7.51;100.00;100934.84;5070237;28;20019;-69
2022/12/26 05:48:12;;;;;;;33.58;22.10;;;;;;;7.54;100.00;100940.81;5070215;28;20044;-69
2022/12/26 05:50:38;;;;;;;37.72;22.10;;;;;;;7.51;100.00;100942.84;5068648;28;20031;-69
2022/12/26 05:53:03;;;;;;;36.85;22.23;;;;;;;7.49;100.00;100939.41;5070001;28;20024;-69
2022/12/26 05:55:29;;;;;;;38.88;23.40;;;;;;;7.41;100.00;100931.06;5069971;28;20040;-69
2022/12/26 05:57:55;;;;;;;37.95;23.77;;;;;;;7.49;100.00;100952.75;5069778;28;20477;-69
2022/12/26 06:00:20;;;;;;;38.28;24.42;;;;;;;7.36;100.00;100928.69;5069727;28;20035;-69
2022/12/26 06:02:46;;;;;;;38.35;24.98;;;;;;;7.36;100.00;100930.50;5069243;28;20662;-69
2022/12/26 06:05:11;;;;;;;35.70;24.50;;;;;;;7.45;100.00;100946.75;5069971;28;20107;-69
2022/12/26 06:07:37;;;;;;;40.17;24.33;;;;;;;7.40;100.00;100948.00;5069893;28;20024;-69
2022/12/26 06:10:05;;;;;;;38.63;25.45;;;;;;;7.29;100.00;100926.53;5069165;28;20035;-70
2022/12/26 06:12:30;;;;;;;45.47;25.50;;;;;;;7.25;100.00;100909.00;5069602;28;20024;-69
2022/12/26 06:14:56;;;;;;;39.88;25.35;;;;;;;7.43;100.00;100935.34;5070259;28;20040;-69
2022/12/26 06:17:21;;;;;;;43.88;26.05;;;;;;;7.39;100.00;100927.63;5061120;28;20097;-69
2022/12/26 06:19:47;;;;;;;42.28;26.40;;;;;;;7.27;100.00;100899.94;5065665;28;20070;-70
2022/12/26 06:22:12;;;;;;;43.63;26.45;;;;;;;7.31;100.00;100908.59;5068553;28;20040;-70
2022/12/26 06:24:37;;;;;;;40.42;24.75;;;;;;;7.31;100.00;100921.91;5067242;28;20374;-70
2022/12/26 06:27:03;;;;;;;40.00;26.17;;;;;;;7.35;100.00;100926.13;5065548;28;20436;-70
2022/12/26 06:29:28;;;;;;;37.40;24.85;;;;;;;7.36;100.00;100928.69;5068357;28;20028;-69
2022/12/26 06:31:54;;;;;;;40.03;25.33;;;;;;;7.37;100.00;100932.19;5068957;28;20553;-70
2022/12/26 06:34:19;;;;;;;40.17;25.85;;;;;;;7.19;100.00;100904.06;5067791;28;20119;-70
2022/12/26 06:36:45;;;;;;;42.80;25.23;;;;;;;7.27;100.00;100915.94;5068668;28;20051;-70
2022/12/26 06:39:10;;;;;;;39.50;25.77;;;;;;;7.39;100.00;100935.63;5069567;28;20028;-70
2022/12/26 06:41:35;;;;;;;38.80;26.42;;;;;;;7.37;100.00;100918.84;5068975;28;20040;-70
2022/12/26 06:44:01;;;;;;;42.03;26.70;;;;;;;7.31;100.00;100919.25;5069369;28;20539;-70
2022/12/26 06:46:27;;;;;;;41.22;26.35;;;;;;;7.42;100.00;100930.09;5067570;28;20029;-70
2022/12/26 06:48:53;;;;;;;39.72;27.15;;;;;;;7.32;100.00;100912.97;5068502;28;20374;-70
2022/12/26 06:51:24;;;;;;;45.03;26.95;;;;;;;7.46;100.00;100928.94;5069147;28;20036;-70
2022/12/26 06:53:51;;;;;;;44.92;27.77;;;;;;;7.38;100.00;100926.78;5067645;28;20067;-70
2022/12/26 06:56:22;;;;;;;47.42;27.73;;;;;;;7.41;100.00;100931.06;5069166;28;20028;-70
2022/12/26 06:58:59;;;;;;;49.13;28.27;;;;;;;7.52;100.00;100934.75;5068780;28;20045;-71
2022/12/26 07:01:27;;;;;;;47.80;29.83;;;;;;;7.56;100.00;100930.06;5064856;28;20036;-70
2022/12/26 07:03:54;;;;;;;46.15;28.02;;;;;;;7.57;100.00;100919.28;5069616;28;20528;-70
2022/12/26 07:06:26;;;;;;;49.10;29.17;;;;;;;7.63;100.00;100920.66;5070996;28;20032;-70
2022/12/26 07:08:54;;;;;;;50.40;29.30;;;;;;;7.62;100.00;100909.16;5074182;28;20037;-70
2022/12/26 07:11:23;;;;;;;46.63;29.70;;;;;;;7.70;100.00;100909.50;5069667;28;20028;-70
2022/12/26 07:13:49;;;;;;;45.65;29.08;;;;;;;7.76;100.00;100916.22;5066818;28;20048;-70
2022/12/26 07:16:15;;;;;;;41.83;28.63;;;;;;;7.70;100.00;100914.84;5066315;28;20112;-70
2022/12/26 07:18:41;;;;;;;50.42;28.95;;;;;;;7.81;100.00;100919.47;5067595;28;20036;-70
2022/12/26 07:21:11;;;;;;;43.65;28.00;;;;;;;7.64;100.00;100882.38;5070984;28;20031;-70
2022/12/26 07:23:37;;;;;;;44.97;29.02;;;;;;;7.74;100.00;100904.81;5069617;28;20048;-70
2022/12/26 07:26:03;;;;;;;45.30;28.30;;;;;;;7.88;100.00;100937.66;5070091;28;20021;-69
2022/12/26 07:28:28;;;;;;;46.38;27.98;;;;;;;7.83;100.00;100918.41;5069684;28;20059;-69
2022/12/26 07:30:56;;;;;;;45.40;28.40;;;;;;;8.01;100.00;100940.34;5071424;28;20028;-69
2022/12/26 07:33:21;;;;;;;46.72;28.75;;;;;;;7.94;100.00;100917.69;5068294;28;20041;-68
2022/12/26 07:35:47;;;;;;;44.92;27.65;;;;;;;8.04;100.00;100934.78;5072746;28;20350;-69
2022/12/26 07:38:12;;;;;;;44.55;29.38;;;;;;;8.06;100.00;100925.72;5073258;28;20036;-68
2022/12/26 07:40:38;;;;;;;39.70;27.17;;;;;;;7.98;100.00;100909.38;5072487;28;20032;-68
2022/12/26 07:43:03;;;;;;;44.90;28.90;;;;;;;8.15;100.00;100930.44;5072675;28;20036;-69
2022/12/26 07:45:29;;;;;;;46.58;28.95;;;;;;;8.19;100.00;100926.59;5072238;28;20055;-69
2022/12/26 07:47:55;;;;;;;43.50;28.13;;;;;;;8.21;100.00;100918.47;5070310;28;20025;-69
2022/12/26 07:50:22;;;;;;;44.42;27.15;;;;;;;8.35;100.00;100931.78;5071404;28;20477;-69
2022/12/26 07:52:48;;;;;;;44.85;27.58;;;;;;;8.42;100.00;100925.06;5072437;28;20020;-70
2022/12/26 07:55:13;;;;;;;42.63;27.10;;;;;;;8.47;100.00;100926.44;5070306;28;20037;-69
2022/12/26 07:57:39;;;;;;;42.63;27.77;;;;;;;8.41;100.00;100907.28;5071696;28;20029;-69
2022/12/26 08:00:06;;;;;;;45.60;27.95;;;;;;;8.57;100.00;100929.31;5071688;28;20098;-69
2022/12/26 08:02:31;;;;;;;39.78;26.17;;;;;;;8.61;100.00;100923.66;5070974;28;20025;-68
2022/12/26 08:04:57;;;;;;;40.67;26.92;;;;;;;8.60;100.00;100918.41;5070557;28;20045;-69
2022/12/26 08:07:22;;;;;;;42.78;27.63;;;;;;;8.67;100.00;100922.34;5072006;28;20021;-69
2022/12/26 08:09:48;;;;;;;44.88;27.15;;;;;;;8.74;100.00;100921.81;5071938;28;20033;-69
2022/12/26 08:12:13;;;;;;;43.95;26.25;;;;;;;8.95;100.00;100938.16;5070056;28;20647;-69
2022/12/26 08:14:40;;;;;;;44.70;27.67;;;;;;;8.96;100.00;100942.53;5069475;28;20774;-68
2022/12/26 08:17:06;;;;;;;37.33;24.35;;;;;;;8.95;100.00;100927.47;5069833;28;20063;-68
2022/12/26 08:19:31;;;;;;;36.65;23.67;;;;;;;8.98;100.00;100927.25;5070989;28;20464;-69
2022/12/26 08:21:56;;;;;;;36.78;24.02;;;;;;;9.14;100.00;100941.25;5068619;28;20028;-70
2022/12/26 08:24:22;;;;;;;35.13;23.80;;;;;;;9.18;100.00;100934.69;5069831;28;20032;-69
2022/12/26 08:26:47;;;;;;;37.10;24.77;;;;;;;9.23;100.00;100932.56;5070616;28;20052;-70
2022/12/26 08:29:13;;;;;;;39.13;24.08;;;;;;;9.34;100.00;100935.28;5068112;28;20045;-70
2022/12/26 08:31:38;;;;;;;37.25;23.23;;;;;;;9.45;100.00;100948.78;5070241;28;20028;-70
2022/12/26 08:34:04;;;;;;;36.42;23.20;;;;;;;9.39;100.00;100924.25;5069325;28;20093;-70
2022/12/26 08:36:29;;;;;;;35.67;23.70;;;;;;;9.57;100.00;100945.16;5069382;28;20020;-69
2022/12/26 08:38:56;;;;;;;34.85;22.50;;;;;;;9.58;100.00;100933.50;5071057;28;20033;-70
2022/12/26 08:41:22;;;;;;;31.60;21.27;;;;;;;9.60;100.00;100930.69;5070386;28;20090;-69
2022/12/26 08:43:51;;;;;;;35.63;21.17;;;;;;;9.78;100.00;100950.75;5070900;28;20032;-69
2022/12/26 08:46:18;;;;;;;29.55;20.10;;;;;;;9.88;100.00;100955.34;5070306;28;20040;-69
2022/12/26 08:48:44;;;;;;;27.25;18.85;;;;;;;9.88;100.00;100941.94;5071193;28;20051;-69
2022/12/26 08:51:13;;;;;;;32.80;20.90;;;;;;;10.08;100.00;100957.41;5069629;28;20029;-69
2022/12/26 08:53:39;;;;;;;32.58;20.38;;;;;;;10.05;100.00;100938.84;5068994;28;20048;-69
2022/12/26 08:56:06;;;;;;;29.58;20.05;;;;;;;10.13;100.00;100951.69;5069153;28;20067;-71
2022/12/26 08:58:32;;;;;;;32.47;21.77;;;;;;;10.09;100.00;100926.09;5069557;28;20396;-71
2022/12/26 09:01:06;;;;;;;30.85;19.70;;;;;;;10.41;100.00;100959.31;5068795;28;20102;-69
2022/12/26 09:03:32;;;;;;;31.33;19.48;;;;;;;10.48;100.00;100955.22;5065604;28;20539;-68
2022/12/26 09:06:01;;;;;;;32.38;18.83;;;;;;;10.56;100.00;100948.28;5070383;28;20036;-68
2022/12/26 09:08:29;;;;;;;28.45;18.98;;;;;;;10.61;100.00;100929.97;5069050;28;20039;-68
2022/12/26 09:10:55;;;;;;;28.92;18.77;;;;;;;10.73;100.00;100945.13;5070382;28;20044;-69
2022/12/26 09:13:21;;;;;;;27.42;19.63;;;;;;;10.82;100.00;100947.09;5070426;28;20020;-68
2022/12/26 09:15:47;;;;;;;27.63;19.05;;;;;;;10.84;100.00;100945.13;5069481;28;20052;-69
2022/12/26 09:18:12;;;;;;;28.52;18.13;;;;;;;10.94;100.00;100939.91;5070504;28;20033;-70
2022/12/26 09:20:37;;;;;;;31.63;17.63;;;;;;;11.00;100.00;100945.63;5070567;28;20040;-69
2022/12/26 09:23:03;;;;;;;24.48;16.83;;;;;;;11.07;100.00;100951.38;5070841;28;20481;-70
2022/12/26 09:25:29;;;;;;;26.95;17.10;;;;;;;11.12;100.00;100950.00;5070648;28;20016;-70
2022/12/26 09:27:54;;;;;;;26.75;17.23;;;;;;;11.20;100.00;100947.59;5070479;28;20110;-70
2022/12/26 09:30:21;;;;;;;23.30;15.88;;;;;;;11.32;100.00;100951.94;5068630;28;20036;-70
2022/12/26 09:32:46;;;;;;;23.65;15.07;;;;;;;11.41;100.00;100950.34;5068750;28;20040;-69
2022/12/26 09:35:12;;;;;;;17.77;13.23;;;;;;;11.52;100.00;100947.66;5068676;28;20024;-69
2022/12/26 09:37:38;;;;;;;19.98;13.25;;;;;;;11.64;100.00;100945.81;5070296;28;20087;-71
2022/12/26 09:40:04;;;;;;;21.42;12.63;;;;;;;11.70;100.00;100945.31;5070946;28;20048;-69
2022/12/26 09:43:08;;;;;;;19.48;12.00;;;;;;;11.65;100.00;100915.28;5069011;28;20115;-68
2022/12/26 09:46:05;;;;;;;19.70;12.13;;;;;;;11.82;100.00;100939.78;5070095;28;20829;-70
2022/12/26 09:48:36;;;;;;;18.30;12.10;;;;;;;11.92;100.00;100945.22;5070005;28;20155;-68
2022/12/26 09:51:02;;;;;;;20.60;12.23;;;;;;;11.82;100.00;100917.41;5070463;28;20036;-69
2022/12/26 09:53:35;;;;;;;20.58;12.45;;;;;;;12.07;99.61;100938.56;5067999;28;20020;-70
2022/12/26 09:56:12;;;;;;;19.35;12.32;;;;;;;12.14;99.32;100951.38;5070203;28;20029;-68
2022/12/26 09:58:47;;;;;;;17.27;12.23;;;;;;;12.16;99.05;100949.41;5070372;28;20557;-70
2022/12/26 10:01:34;;;;;;;21.88;12.45;;;;;;;12.25;98.20;100947.78;5069842;28;20021;-69
2022/12/26 10:04:03;;;;;;;17.33;11.98;;;;;;;12.26;97.49;100928.84;5067505;28;20525;-69
2022/12/26 10:06:44;;;;;;;19.35;12.63;;;;;;;12.21;97.99;100920.28;5069309;28;20032;-70
2022/12/26 10:09:41;;;;;;;16.45;11.38;;;;;;;12.42;97.80;100939.13;5070329;28;20035;-70
2022/12/26 10:12:49;;;;;;;16.50;11.55;;;;;;;12.49;97.33;100945.69;5070221;28;20051;-70
2022/12/26 10:15:37;;;;;;;14.85;9.95;;;;;;;12.57;95.86;100951.25;5049081;28;20049;-70
2022/12/26 10:18:08;;;;;;;16.52;9.45;;;;;;;12.70;94.62;100947.38;5068633;28;20045;-70
2022/12/26 10:20:45;;;;;;;14.63;8.55;;;;;;;12.93;91.94;100945.41;5069681;28;20028;-70
2022/12/26 10:23:32;;;;;;;15.93;9.18;;;;;;;12.86;91.73;100941.50;5069525;28;20486;-69
2022/12/26 10:26:03;;;;;;;14.27;8.07;;;;;;;12.98;91.88;100953.91;5069747;28;20055;-69
2022/12/26 10:28:44;;;;;;;11.88;7.03;;;;;;;12.90;91.99;100937.59;5067990;28;20481;-70
2022/12/26 10:31:33;;;;;;;11.88;7.88;;;;;;;13.07;89.48;100940.53;5069156;28;20365;-69
2022/12/26 10:34:07;;;;;;;11.45;7.30;;;;;;;12.99;90.08;100943.03;5067559;28;20051;-70
2022/12/26 10:36:47;;;;;;;12.13;7.07;;;;;;;13.22;87.56;100947.22;5069517;28;20070;-69
2022/12/26 10:39:21;;;;;;;10.75;7.25;;;;;;;13.06;88.96;100927.19;5069332;28;20024;-70
2022/12/26 10:41:51;;;;;;;12.48;7.82;;;;;;;13.20;89.36;100937.59;5069249;28;20356;-70
2022/12/26 10:44:16;;;;;;;14.00;7.82;;;;;;;13.30;87.56;100946.56;5069043;28;20032;-69
2022/12/26 10:46:55;;;;;;;14.75;8.02;;;;;;;13.31;87.73;100943.72;5069294;28;20031;-69
2022/12/26 10:49:23;;;;;;;12.50;7.35;;;;;;;13.26;87.61;100935.19;5067637;28;20565;-70
2022/12/26 10:51:51;;;;;;;12.13;7.78;;;;;;;13.24;87.55;100917.47;5068995;28;20067;-71
2022/12/26 10:54:18;;;;;;;11.98;7.30;;;;;;;13.49;85.88;100933.16;5069289;28;20416;-70
2022/12/26 10:56:47;;;;;;;12.40;6.53;;;;;;;13.64;83.94;100924.53;5068702;28;20433;-71
2022/12/26 10:59:19;;;;;;;10.93;7.30;;;;;;;13.76;82.54;100922.53;5067882;28;20037;-70
2022/12/26 11:01:48;;;;;;;11.75;7.35;;;;;;;13.75;82.33;100920.84;5068996;28;20505;-70
2022/12/26 11:04:21;;;;;;;9.80;6.82;;;;;;;13.74;81.81;100921.84;5067394;28;20126;-70
2022/12/26 11:06:51;;;;;;;12.50;7.97;;;;;;;13.69;81.57;100907.94;5068831;28;20070;-71
2022/12/26 11:09:41;;;;;;;10.95;7.38;;;;;;;13.68;83.68;100911.63;5068627;28;20032;-71
2022/12/26 11:12:39;;;;;;;10.32;6.75;;;;;;;13.70;82.01;100904.22;5068589;28;20354;-70
2022/12/26 11:15:21;;;;;;;11.38;7.43;;;;;;;13.69;80.87;100878.28;5043190;28;20041;-71
2022/12/26 11:17:50;;;;;;;11.85;6.72;;;;;;;13.67;82.31;100897.28;5068128;28;20408;-70
2022/12/26 11:20:15;;;;;;;10.43;6.43;;;;;;;13.63;83.15;100900.41;5068850;28;20067;-69
2022/12/26 11:22:42;;;;;;;12.25;7.35;;;;;;;13.62;83.87;100885.22;5068756;28;20067;-73
2022/12/26 11:25:24;;;;;;;11.32;6.82;;;;;;;13.65;84.59;100890.34;5069781;28;20031;-73
2022/12/26 11:27:52;;;;;;;12.13;7.00;;;;;;;13.67;81.68;100873.03;5068799;28;20099;-73
2022/12/26 11:30:37;;;;;;;8.63;6.15;;;;;;;13.92;80.31;100903.97;5068649;28;20039;-74
2022/12/26 11:33:18;;;;;;;11.20;7.47;;;;;;;13.93;79.13;100875.16;5069932;28;20031;-73
2022/12/26 11:35:58;;;;;;;9.45;7.07;;;;;;;13.95;80.54;100895.59;5061296;28;20520;-74
2022/12/26 11:38:35;;;;;;;10.48;7.15;;;;;;;14.02;79.33;100885.09;5067483;28;20501;-73
2022/12/26 11:43:58;;;;;;;12.32;7.50;;;;;;;13.97;79.24;100882.84;5068532;28;20520;-74
2022/12/26 11:46:35;;;;;;;10.77;7.15;;;;;;;13.95;79.04;100884.81;5067486;28;20031;-73
2022/12/26 11:49:01;;;;;;;8.60;6.68;;;;;;;13.90;80.71;100872.75;5067188;28;20053;-74
2022/12/26 11:51:42;;;;;;;10.45;7.38;;;;;;;13.78;81.29;100874.75;5066649;28;20071;-74
2022/12/26 11:54:32;;;;;;;12.43;7.35;;;;;;;13.89;80.54;100879.16;5067495;28;20024;-74
2022/12/26 11:57:11;;;;;;;11.65;6.88;;;;;;;13.86;81.59;100877.56;5067316;28;20128;-74
2022/12/26 11:59:37;;;;;;;9.35;7.38;;;;;;;13.85;81.33;100873.19;5067894;28;20551;-73
2022/12/26 12:02:14;;;;;;;11.45;6.82;;;;;;;13.86;81.39;100877.56;5069457;28;20021;-74
2022/12/26 12:04:40;;;;;;;12.98;7.10;;;;;;;13.82;82.33;100870.75;5070057;28;20043;-74
2022/12/26 12:07:14;;;;;;;8.38;6.32;;;;;;;13.75;82.11;100856.16;5069840;28;20474;-75
2022/12/26 12:09:58;;;;;;;12.77;6.90;;;;;;;13.91;81.66;100869.06;5068700;28;20161;-73
2022/12/26 12:12:52;;;;;;;12.15;7.40;;;;;;;13.90;81.23;100864.66;5068589;28;20023;-74
2022/12/26 12:15:41;;;;;;;11.02;7.07;;;;;;;13.99;81.34;100871.91;5068615;28;20093;-72
2022/12/26 12:18:12;;;;;;;15.68;8.35;;;;;;;13.98;81.78;100862.94;5068281;28;20404;-73
2022/12/26 12:20:54;;;;;;;12.65;7.75;;;;;;;13.86;81.25;100839.81;5070457;28;20064;-73
2022/12/26 12:23:32;;;;;;;14.23;8.52;;;;;;;13.96;81.86;100854.13;5070868;28;20503;-73
2022/12/26 12:26:02;;;;;;;10.10;7.20;;;;;;;13.96;82.45;100853.31;5068872;28;20040;-73
2022/12/26 12:28:55;;;;;;;11.38;7.80;;;;;;;13.93;82.47;100846.31;5082227;28;20468;-73
2022/12/26 12:31:42;;;;;;;9.93;7.18;;;;;;;13.93;82.18;100840.09;5070143;28;20097;-74
2022/12/26 12:35:02;;;;;;;13.88;7.60;;;;;;;13.91;82.29;100848.34;5071402;28;20137;-73
2022/12/26 12:37:57;;;;;;;12.70;7.68;;;;;;;13.94;82.33;100848.06;5027865;28;20521;-73
2022/12/26 12:40:43;;;;;;;13.05;7.32;;;;;;;13.92;82.41;100849.16;5068705;28;20040;-72
2022/12/26 12:43:37;;;;;;;13.50;7.40;;;;;;;13.99;82.29;100850.31;5068098;28;20464;-74
2022/12/26 12:46:18;;;;;;;10.38;7.93;;;;;;;13.99;82.20;100851.16;5069495;28;20040;-74
2022/12/26 12:49:01;;;;;;;12.45;8.10;;;;;;;13.99;82.14;100850.31;5070910;28;20540;-74
2022/12/26 12:51:41;;;;;;;12.35;7.93;;;;;;;14.04;81.93;100846.19;5068712;28;20044;-73
2022/12/26 12:54:28;;;;;;;11.82;7.88;;;;;;;14.02;82.50;100850.88;5071269;28;20032;-74
2022/12/26 12:57:22;;;;;;;11.75;7.70;;;;;;;13.99;81.76;100834.13;5071983;28;20107;-73
2022/12/26 13:00:02;;;;;;;11.43;7.78;;;;;;;14.11;81.85;100843.75;5074700;28;20049;-73
2022/12/26 13:02:50;;;;;;;10.77;6.97;;;;;;;14.10;81.97;100829.44;5064247;28;20103;-72
2022/12/26 13:05:47;;;;;;;11.57;7.95;;;;;;;14.05;82.90;100820.91;5079914;28;20567;-74
2022/12/26 13:08:12;;;;;;;13.27;8.75;;;;;;;14.04;83.44;100818.38;5080920;28;20405;-74
2022/12/26 13:10:49;;;;;;;12.07;7.72;;;;;;;13.99;83.61;100802.59;5070216;28;20025;-74
2022/12/26 13:13:27;;;;;;;12.10;7.80;;;;;;;14.00;84.16;100817.81;5069584;28;20102;-74
2022/12/26 13:15:59;;;;;;;12.40;8.15;;;;;;;13.79;84.27;100779.38;5070241;28;20024;-75
2022/12/26 13:18:32;;;;;;;10.68;7.97;;;;;;;13.88;84.06;100794.69;5068028;28;20043;-74
2022/12/26 13:21:04;;;;;;;11.10;7.15;;;;;;;13.87;84.48;100795.69;5060265;28;20020;-75
2022/12/26 13:26:29;;;;;;;12.77;8.10;;;;;;;14.01;85.21;100826.75;5074242;28;20506;-73
2022/12/26 13:29:25;;;;;;;12.30;8.57;;;;;;;14.01;85.28;100826.75;5055058;28;20033;-73
2022/12/26 13:31:51;;;;;;;9.98;7.90;;;;;;;14.03;84.92;100822.94;5072067;28;20021;-73
2022/12/26 13:34:19;;;;;;;13.35;8.77;;;;;;;14.04;85.52;100832.72;5070108;28;20101;-74
2022/12/26 13:36:46;;;;;;;13.30;8.65;;;;;;;14.05;85.55;100830.84;5070286;28;20029;-74
2022/12/26 13:39:11;;;;;;;13.20;8.95;;;;;;;13.91;86.14;100817.81;5071842;28;20032;-74
2022/12/26 13:44:31;;;;;;;14.32;8.35;;;;;;;14.00;86.00;100825.03;5070949;28;20171;-73
2022/12/26 13:46:58;;;;;;;12.35;8.27;;;;;;;13.92;86.66;100816.81;5071417;28;20075;-74
2022/12/26 13:49:40;;;;;;;13.75;8.68;;;;;;;13.95;86.84;100827.31;5071180;28;20072;-74
2022/12/26 13:52:14;;;;;;;15.35;8.23;;;;;;;13.97;87.32;100828.91;5071227;28;20428;-73